createdAt,value
2019-04-23T08:55:13.282Z,941.5
2019-04-23T09:07:34.917Z,941
2019-04-23T09:32:21.685Z,940.3
2019-04-23T09:56:51.925Z,946.8
2019-04-23T10:07:58.353Z,946.5
2019-04-23T10:18:04.890Z,940.4
2019-04-23T10:28:18.693Z,940.8
2019-04-23T10:38:32.053Z,940.6
2019-04-23T10:51:24.533Z,940.6
2019-04-23T11:04:28.701Z,940.6
2019-04-23T11:30:18.884Z,946.8
2019-04-23T11:55:25.985Z,945.9
2019-04-23T12:07:39.125Z,945.8
2019-04-23T12:21:03.571Z,945.7
2019-04-23T12:34:03.375Z,945.5
2019-04-23T12:46:44.925Z,945.5
2019-04-23T12:59:21.822Z,945.2
2019-04-23T13:11:40.497Z,944.8
2019-04-23T13:24:03.319Z,944.5
2019-04-23T13:36:58.577Z,944.3
2019-04-23T13:49:15.905Z,944.1
2019-04-23T14:01:31.925Z,944
2019-04-23T14:14:24.218Z,943.9
2019-04-23T14:26:37.850Z,943.9
2019-04-23T14:39:09.616Z,943.9
2019-04-23T14:52:11.879Z,943.7
2019-04-23T15:04:37.700Z,943.5
2019-04-23T15:17:05.337Z,943.4
2019-04-23T15:28:32.452Z,943.4
2019-04-23T15:40:50.978Z,943.4
2019-04-23T15:53:10.881Z,943.3
2019-04-23T16:03:33.336Z,943.4
2019-04-23T16:16:14.094Z,943.4
2019-04-23T16:28:56.682Z,943.6
2019-04-23T16:41:23.976Z,943.8
2019-04-23T16:53:33.104Z,943.9
2019-04-23T17:06:03.790Z,943.8
2019-04-23T17:18:01.474Z,943.9
2019-04-23T17:30:27.771Z,944.1
2019-04-23T17:42:54.204Z,944.1
2019-04-23T17:55:21.474Z,944.2
2019-04-23T18:08:10.982Z,944.3
2019-04-23T18:20:28.056Z,944.5
2019-04-23T18:33:23.562Z,944.7
2019-04-23T19:11:20.720Z,945.3
2019-04-23T19:48:57.039Z,945.9
2019-04-23T20:01:27.464Z,946.1
2019-04-23T20:13:55.188Z,946.3
2019-04-23T20:28:36.588Z,946.4
2019-04-23T20:41:30.642Z,946.6
2019-04-23T20:54:31.173Z,946.6
2019-04-23T21:06:55.902Z,946.8
2019-04-23T21:19:18.353Z,946.8
2019-04-23T21:32:06.260Z,946.9
2019-04-23T21:44:52.201Z,947.1
2019-04-23T21:57:21.658Z,947.3
2019-04-23T22:09:50.192Z,947.5
2019-04-23T22:22:24.769Z,947.5
2019-04-23T22:47:33.407Z,947.7
2019-04-23T23:00:32.233Z,947.9
2019-04-23T23:13:25.780Z,948
2019-04-23T23:26:00.508Z,948.3
2019-04-23T23:38:58.289Z,948.4
2019-04-23T23:51:49.082Z,948.5
